sensor_id;sensor_type;location;lat;lon;timestamp;temperature;humidity
3202;DHT22;34843;48.744;8.958;2023-01-30T00:01:01;-5.10;99.90
3202;DHT22;34843;48.744;8.958;2023-01-30T00:03:28;-5.10;99.90
3202;DHT22;34843;48.744;8.958;2023-01-30T00:05:53;-5.20;99.90
3202;DHT22;34843;48.744;8.958;2023-01-30T00:08:19;-5.20;99.90
3202;DHT22;34843;48.744;8.958;2023-01-30T00:10:45;-5.10;99.90
3202;DHT22;34843;48.744;8.958;2023-01-30T00:13:11;-5.20;99.90
3202;DHT22;34843;48.744;8.958;2023-01-30T00:15:39;-5.20;99.90
3202;DHT22;34843;48.744;8.958;2023-01-30T00:18:04;-5.20;99.90
3202;DHT22;34843;48.744;8.958;2023-01-30T00:20:30;-5.10;99.90
3202;DHT22;34843;48.744;8.958;2023-01-30T00:22:56;-5.00;99.90
3202;DHT22;34843;48.744;8.958;2023-01-30T00:25:23;-5.00;99.90
3202;DHT22;34843;48.744;8.958;2023-01-30T00:27:49;-5.00;99.90
3202;DHT22;34843;48.744;8.958;2023-01-30T00:30:15;-4.90;99.90
3202;DHT22;34843;48.744;8.958;2023-01-30T00:32:40;-4.90;99.90
3202;DHT22;34843;48.744;8.958;2023-01-30T00:35:06;-4.90;99.90
3202;DHT22;34843;48.744;8.958;2023-01-30T00:37:32;-4.80;99.90
3202;DHT22;34843;48.744;8.958;2023-01-30T00:39:57;-4.80;99.90
3202;DHT22;34843;48.744;8.958;2023-01-30T00:42:23;-4.70;99.90
3202;DHT22;34843;48.744;8.958;2023-01-30T00:45:10;-4.70;99.90
3202;DHT22;34843;48.744;8.958;2023-01-30T00:47:54;-4.80;99.90
3202;DHT22;34843;48.744;8.958;2023-01-30T00:50:19;-4.70;99.90
3202;DHT22;34843;48.744;8.958;2023-01-30T00:52:45;-4.70;99.90
3202;DHT22;34843;48.744;8.958;2023-01-30T00:55:10;-4.80;99.90
3202;DHT22;34843;48.744;8.958;2023-01-30T00:57:36;-4.80;99.90
3202;DHT22;34843;48.744;8.958;2023-01-30T01:00:03;-4.70;99.90
3202;DHT22;34843;48.744;8.958;2023-01-30T01:02:30;-4.70;99.90
3202;DHT22;34843;48.744;8.958;2023-01-30T01:04:56;-4.80;99.90
3202;DHT22;34843;48.744;8.958;2023-01-30T01:07:21;-4.90;99.90
3202;DHT22;34843;48.744;8.958;2023-01-30T01:09:47;-4.90;99.90
3202;DHT22;34843;48.744;8.958;2023-01-30T01:12:12;-4.80;99.90
3202;DHT22;34843;48.744;8.958;2023-01-30T01:14:38;-4.80;99.90
3202;DHT22;34843;48.744;8.958;2023-01-30T01:17:03;-4.80;99.90
3202;DHT22;34843;48.744;8.958;2023-01-30T01:19:29;-4.80;99.90
3202;DHT22;34843;48.744;8.958;2023-01-30T01:21:55;-4.60;99.90
3202;DHT22;34843;48.744;8.958;2023-01-30T01:24:20;-4.70;99.90
3202;DHT22;34843;48.744;8.958;2023-01-30T01:26:46;-4.80;99.90
3202;DHT22;34843;48.744;8.958;2023-01-30T01:29:13;-4.70;99.90
3202;DHT22;34843;48.744;8.958;2023-01-30T01:31:40;-4.80;99.90
3202;DHT22;34843;48.744;8.958;2023-01-30T01:34:05;-4.80;99.90
3202;DHT22;34843;48.744;8.958;2023-01-30T01:36:31;-4.70;99.90
3202;DHT22;34843;48.744;8.958;2023-01-30T01:38:57;-4.70;99.90
3202;DHT22;34843;48.744;8.958;2023-01-30T01:41:22;-4.70;99.90
3202;DHT22;34843;48.744;8.958;2023-01-30T01:44:08;-4.60;99.90
3202;DHT22;34843;48.744;8.958;2023-01-30T01:46:55;-4.60;99.90
3202;DHT22;34843;48.744;8.958;2023-01-30T01:49:32;-4.70;99.90
3202;DHT22;34843;48.744;8.958;2023-01-30T01:52:13;-4.60;99.90
3202;DHT22;34843;48.744;8.958;2023-01-30T01:54:48;-4.60;99.90
3202;DHT22;34843;48.744;8.958;2023-01-30T01:57:21;-4.60;99.90
3202;DHT22;34843;48.744;8.958;2023-01-30T01:59:56;-4.60;99.90
3202;DHT22;34843;48.744;8.958;2023-01-30T02:02:25;-4.50;99.90
3202;DHT22;34843;48.744;8.958;2023-01-30T02:04:54;-4.50;99.90
3202;DHT22;34843;48.744;8.958;2023-01-30T02:07:52;-4.50;99.90
3202;DHT22;34843;48.744;8.958;2023-01-30T02:10:26;-4.60;99.90
3202;DHT22;34843;48.744;8.958;2023-01-30T02:12:54;-4.60;99.90
3202;DHT22;34843;48.744;8.958;2023-01-30T02:15:19;-4.50;99.90
3202;DHT22;34843;48.744;8.958;2023-01-30T02:17:45;-4.50;99.90
3202;DHT22;34843;48.744;8.958;2023-01-30T02:26:11;-4.60;99.90
3202;DHT22;34843;48.744;8.958;2023-01-30T02:34:44;-4.70;99.90
3202;DHT22;34843;48.744;8.958;2023-01-30T02:37:29;-4.70;99.90
3202;DHT22;34843;48.744;8.958;2023-01-30T02:42:55;-4.80;99.90
3202;DHT22;34843;48.744;8.958;2023-01-30T02:45:53;-4.90;99.90
3202;DHT22;34843;48.744;8.958;2023-01-30T02:48:27;-4.80;99.90
3202;DHT22;34843;48.744;8.958;2023-01-30T02:51:03;-4.70;99.90
3202;DHT22;34843;48.744;8.958;2023-01-30T02:53:35;-4.80;99.90
3202;DHT22;34843;48.744;8.958;2023-01-30T02:56:01;-4.80;99.90
3202;DHT22;34843;48.744;8.958;2023-01-30T02:58:31;-4.80;99.90
3202;DHT22;34843;48.744;8.958;2023-01-30T03:04:07;-4.80;99.90
3202;DHT22;34843;48.744;8.958;2023-01-30T03:11:44;-4.70;99.90
3202;DHT22;34843;48.744;8.958;2023-01-30T03:14:24;-4.60;99.90
3202;DHT22;34843;48.744;8.958;2023-01-30T03:16:53;-4.60;99.90
3202;DHT22;34843;48.744;8.958;2023-01-30T03:19:19;-4.50;99.90
3202;DHT22;34843;48.744;8.958;2023-01-30T03:21:45;-4.40;99.90
3202;DHT22;34843;48.744;8.958;2023-01-30T03:24:12;-4.30;99.90
3202;DHT22;34843;48.744;8.958;2023-01-30T03:26:45;-4.20;99.90
3202;DHT22;34843;48.744;8.958;2023-01-30T03:29:13;-4.00;99.90
3202;DHT22;34843;48.744;8.958;2023-01-30T03:31:39;-4.00;99.90
3202;DHT22;34843;48.744;8.958;2023-01-30T03:34:04;-3.90;99.90
3202;DHT22;34843;48.744;8.958;2023-01-30T03:36:30;-3.70;99.90
3202;DHT22;34843;48.744;8.958;2023-01-30T03:38:56;-3.60;99.90
3202;DHT22;34843;48.744;8.958;2023-01-30T03:41:21;-3.60;99.90
3202;DHT22;34843;48.744;8.958;2023-01-30T03:43:47;-3.50;99.90
3202;DHT22;34843;48.744;8.958;2023-01-30T03:46:12;-3.40;99.90
3202;DHT22;34843;48.744;8.958;2023-01-30T03:48:38;-3.30;99.90
3202;DHT22;34843;48.744;8.958;2023-01-30T03:51:04;-3.20;99.90
3202;DHT22;34843;48.744;8.958;2023-01-30T03:53:29;-3.10;99.90
3202;DHT22;34843;48.744;8.958;2023-01-30T03:55:55;-3.00;99.90
3202;DHT22;34843;48.744;8.958;2023-01-30T03:58:20;-2.90;99.90
3202;DHT22;34843;48.744;8.958;2023-01-30T04:00:46;-2.80;99.90
3202;DHT22;34843;48.744;8.958;2023-01-30T04:03:11;-2.60;99.90
3202;DHT22;34843;48.744;8.958;2023-01-30T04:05:37;-2.50;99.90
3202;DHT22;34843;48.744;8.958;2023-01-30T04:08:02;-2.50;99.90
3202;DHT22;34843;48.744;8.958;2023-01-30T04:10:28;-2.40;99.90
3202;DHT22;34843;48.744;8.958;2023-01-30T04:12:54;-2.30;99.90
3202;DHT22;34843;48.744;8.958;2023-01-30T04:15:19;-2.30;99.90
3202;DHT22;34843;48.744;8.958;2023-01-30T04:17:45;-2.30;99.90
3202;DHT22;34843;48.744;8.958;2023-01-30T04:20:12;-2.30;99.90
3202;DHT22;34843;48.744;8.958;2023-01-30T04:22:37;-2.20;99.90
3202;DHT22;34843;48.744;8.958;2023-01-30T04:25:03;-2.20;99.90
3202;DHT22;34843;48.744;8.958;2023-01-30T04:27:29;-2.20;99.90
3202;DHT22;34843;48.744;8.958;2023-01-30T04:29:54;-2.10;99.90
3202;DHT22;34843;48.744;8.958;2023-01-30T04:32:20;-2.10;99.90
3202;DHT22;34843;48.744;8.958;2023-01-30T04:34:45;-2.10;99.90
3202;DHT22;34843;48.744;8.958;2023-01-30T04:37:11;-2.00;99.90
3202;DHT22;34843;48.744;8.958;2023-01-30T04:39:37;-2.00;99.90
3202;DHT22;34843;48.744;8.958;2023-01-30T04:42:03;-1.90;99.90
3202;DHT22;34843;48.744;8.958;2023-01-30T04:44:28;-1.80;99.90
3202;DHT22;34843;48.744;8.958;2023-01-30T04:46:54;-1.70;99.90
3202;DHT22;34843;48.744;8.958;2023-01-30T04:49:20;-1.70;99.90
3202;DHT22;34843;48.744;8.958;2023-01-30T04:51:45;-1.70;99.90
3202;DHT22;34843;48.744;8.958;2023-01-30T04:54:11;-1.60;99.90
3202;DHT22;34843;48.744;8.958;2023-01-30T04:56:37;-1.50;99.90
3202;DHT22;34843;48.744;8.958;2023-01-30T04:59:02;-1.40;99.90
3202;DHT22;34843;48.744;8.958;2023-01-30T05:01:36;-1.40;99.90
3202;DHT22;34843;48.744;8.958;2023-01-30T05:04:03;-1.40;99.90
3202;DHT22;34843;48.744;8.958;2023-01-30T05:06:30;-1.40;99.90
3202;DHT22;34843;48.744;8.958;2023-01-30T05:08:57;-1.30;99.90
3202;DHT22;34843;48.744;8.958;2023-01-30T05:11:24;-1.30;99.90
3202;DHT22;34843;48.744;8.958;2023-01-30T05:13:50;-1.30;99.90
3202;DHT22;34843;48.744;8.958;2023-01-30T05:16:16;-1.20;99.90
3202;DHT22;34843;48.744;8.958;2023-01-30T05:18:42;-1.20;99.90
3202;DHT22;34843;48.744;8.958;2023-01-30T05:21:19;-1.30;99.90
3202;DHT22;34843;48.744;8.958;2023-01-30T05:23:45;-1.20;99.90
3202;DHT22;34843;48.744;8.958;2023-01-30T05:26:12;-1.20;99.90
3202;DHT22;34843;48.744;8.958;2023-01-30T05:28:38;-1.20;99.90
3202;DHT22;34843;48.744;8.958;2023-01-30T05:31:06;-1.20;99.90
3202;DHT22;34843;48.744;8.958;2023-01-30T05:33:32;-1.20;99.90
3202;DHT22;34843;48.744;8.958;2023-01-30T05:35:58;-1.20;99.90
3202;DHT22;34843;48.744;8.958;2023-01-30T05:38:24;-1.20;99.90
3202;DHT22;34843;48.744;8.958;2023-01-30T05:43:23;-1.10;99.90
3202;DHT22;34843;48.744;8.958;2023-01-30T05:45:52;-1.20;99.90
3202;DHT22;34843;48.744;8.958;2023-01-30T05:48:18;-1.20;99.90
3202;DHT22;34843;48.744;8.958;2023-01-30T05:50:43;-1.20;99.90
3202;DHT22;34843;48.744;8.958;2023-01-30T05:53:09;-1.10;99.90
3202;DHT22;34843;48.744;8.958;2023-01-30T05:55:35;-1.10;99.90
3202;DHT22;34843;48.744;8.958;2023-01-30T05:58:00;-1.10;99.90
3202;DHT22;34843;48.744;8.958;2023-01-30T06:00:26;-1.00;99.90
3202;DHT22;34843;48.744;8.958;2023-01-30T06:02:51;-1.00;99.90
3202;DHT22;34843;48.744;8.958;2023-01-30T06:05:17;-1.00;99.90
3202;DHT22;34843;48.744;8.958;2023-01-30T06:07:42;-1.00;99.90
3202;DHT22;34843;48.744;8.958;2023-01-30T06:10:08;-1.10;99.90
3202;DHT22;34843;48.744;8.958;2023-01-30T06:12:34;-1.20;99.90
3202;DHT22;34843;48.744;8.958;2023-01-30T06:14:59;-1.20;99.90
3202;DHT22;34843;48.744;8.958;2023-01-30T06:17:25;-1.20;99.90
3202;DHT22;34843;48.744;8.958;2023-01-30T06:19:50;-1.20;99.90
3202;DHT22;34843;48.744;8.958;2023-01-30T06:22:16;-1.20;99.90
3202;DHT22;34843;48.744;8.958;2023-01-30T06:24:42;-1.10;99.90
3202;DHT22;34843;48.744;8.958;2023-01-30T06:27:07;-1.10;99.90
3202;DHT22;34843;48.744;8.958;2023-01-30T06:29:33;-1.10;99.90
3202;DHT22;34843;48.744;8.958;2023-01-30T06:31:58;-1.20;99.90
3202;DHT22;34843;48.744;8.958;2023-01-30T06:34:24;-1.20;99.90
3202;DHT22;34843;48.744;8.958;2023-01-30T06:36:49;-1.10;99.90
3202;DHT22;34843;48.744;8.958;2023-01-30T06:39:15;-1.10;99.90
3202;DHT22;34843;48.744;8.958;2023-01-30T06:41:40;-1.10;99.90
3202;DHT22;34843;48.744;8.958;2023-01-30T06:44:08;-1.00;99.90
3202;DHT22;34843;48.744;8.958;2023-01-30T06:46:33;-1.00;99.90
3202;DHT22;34843;48.744;8.958;2023-01-30T06:48:59;-1.00;99.90
3202;DHT22;34843;48.744;8.958;2023-01-30T06:51:24;-1.10;99.90
3202;DHT22;34843;48.744;8.958;2023-01-30T06:53:52;-1.10;99.90
3202;DHT22;34843;48.744;8.958;2023-01-30T06:56:17;-1.00;99.90
3202;DHT22;34843;48.744;8.958;2023-01-30T06:58:44;-0.90;99.90
3202;DHT22;34843;48.744;8.958;2023-01-30T07:01:10;-0.90;99.90
3202;DHT22;34843;48.744;8.958;2023-01-30T07:03:36;-0.80;99.90
3202;DHT22;34843;48.744;8.958;2023-01-30T07:06:01;-0.80;99.90
3202;DHT22;34843;48.744;8.958;2023-01-30T07:08:27;-1.00;99.90
3202;DHT22;34843;48.744;8.958;2023-01-30T07:10:52;-1.00;99.90
3202;DHT22;34843;48.744;8.958;2023-01-30T07:13:18;-1.10;99.90
3202;DHT22;34843;48.744;8.958;2023-01-30T07:15:44;-1.00;99.90
3202;DHT22;34843;48.744;8.958;2023-01-30T07:18:10;-0.90;99.90
3202;DHT22;34843;48.744;8.958;2023-01-30T07:20:36;-0.80;99.90
3202;DHT22;34843;48.744;8.958;2023-01-30T07:23:01;-0.70;99.90
3202;DHT22;34843;48.744;8.958;2023-01-30T07:25:28;-0.60;99.90
3202;DHT22;34843;48.744;8.958;2023-01-30T07:27:58;-0.50;99.90
3202;DHT22;34843;48.744;8.958;2023-01-30T07:30:25;-0.50;99.90
3202;DHT22;34843;48.744;8.958;2023-01-30T07:32:52;-0.40;99.90
3202;DHT22;34843;48.744;8.958;2023-01-30T07:35:19;-0.30;99.90
3202;DHT22;34843;48.744;8.958;2023-01-30T07:37:49;-0.30;99.90
3202;DHT22;34843;48.744;8.958;2023-01-30T07:40:15;-0.20;99.90
3202;DHT22;34843;48.744;8.958;2023-01-30T07:42:41;-0.20;99.90
3202;DHT22;34843;48.744;8.958;2023-01-30T07:45:08;-0.10;99.90
3202;DHT22;34843;48.744;8.958;2023-01-30T07:47:34;0.00;99.90
3202;DHT22;34843;48.744;8.958;2023-01-30T07:49:59;0.00;99.90
3202;DHT22;34843;48.744;8.958;2023-01-30T07:52:25;0.20;99.90
3202;DHT22;34843;48.744;8.958;2023-01-30T07:54:50;0.30;99.90
3202;DHT22;34843;48.744;8.958;2023-01-30T07:57:16;0.40;99.90
3202;DHT22;34843;48.744;8.958;2023-01-30T07:59:42;0.50;99.90
3202;DHT22;34843;48.744;8.958;2023-01-30T08:02:09;0.50;99.90
3202;DHT22;34843;48.744;8.958;2023-01-30T08:04:35;0.50;99.90
3202;DHT22;34843;48.744;8.958;2023-01-30T08:07:01;0.60;99.90
3202;DHT22;34843;48.744;8.958;2023-01-30T08:09:26;0.70;99.90
3202;DHT22;34843;48.744;8.958;2023-01-30T08:11:52;0.70;99.90
3202;DHT22;34843;48.744;8.958;2023-01-30T08:14:18;0.80;99.90
3202;DHT22;34843;48.744;8.958;2023-01-30T08:16:44;0.90;99.90
3202;DHT22;34843;48.744;8.958;2023-01-30T08:19:10;0.90;99.90
3202;DHT22;34843;48.744;8.958;2023-01-30T08:21:36;1.00;99.90
3202;DHT22;34843;48.744;8.958;2023-01-30T08:24:01;1.00;99.90
3202;DHT22;34843;48.744;8.958;2023-01-30T08:26:27;1.10;99.90
3202;DHT22;34843;48.744;8.958;2023-01-30T08:28:52;1.10;99.90
3202;DHT22;34843;48.744;8.958;2023-01-30T08:31:20;1.10;99.90
3202;DHT22;34843;48.744;8.958;2023-01-30T08:33:46;1.10;99.90
3202;DHT22;34843;48.744;8.958;2023-01-30T08:36:12;1.10;99.90
3202;DHT22;34843;48.744;8.958;2023-01-30T08:38:37;1.20;99.90
3202;DHT22;34843;48.744;8.958;2023-01-30T08:41:04;1.40;99.90
3202;DHT22;34843;48.744;8.958;2023-01-30T08:43:30;1.70;99.90
3202;DHT22;34843;48.744;8.958;2023-01-30T08:45:56;2.00;99.90
3202;DHT22;34843;48.744;8.958;2023-01-30T08:48:22;2.20;99.90
3202;DHT22;34843;48.744;8.958;2023-01-30T08:50:51;2.30;99.90
3202;DHT22;34843;48.744;8.958;2023-01-30T08:53:17;2.00;99.90
3202;DHT22;34843;48.744;8.958;2023-01-30T08:55:44;1.60;99.90
3202;DHT22;34843;48.744;8.958;2023-01-30T08:58:09;1.20;99.90
3202;DHT22;34843;48.744;8.958;2023-01-30T09:00:35;1.30;99.90
3202;DHT22;34843;48.744;8.958;2023-01-30T09:03:01;1.50;99.90
3202;DHT22;34843;48.744;8.958;2023-01-30T09:05:27;1.40;99.90
3202;DHT22;34843;48.744;8.958;2023-01-30T09:07:54;1.40;99.90
3202;DHT22;34843;48.744;8.958;2023-01-30T09:10:20;1.50;99.90
3202;DHT22;34843;48.744;8.958;2023-01-30T09:12:47;1.70;99.90
3202;DHT22;34843;48.744;8.958;2023-01-30T09:15:12;1.80;99.90
3202;DHT22;34843;48.744;8.958;2023-01-30T09:17:38;1.90;99.90
3202;DHT22;34843;48.744;8.958;2023-01-30T09:20:08;2.10;99.90
3202;DHT22;34843;48.744;8.958;2023-01-30T09:22:33;2.10;99.90
3202;DHT22;34843;48.744;8.958;2023-01-30T09:24:59;2.30;99.90
3202;DHT22;34843;48.744;8.958;2023-01-30T09:27:25;2.40;99.90
3202;DHT22;34843;48.744;8.958;2023-01-30T09:29:50;2.50;99.90
3202;DHT22;34843;48.744;8.958;2023-01-30T09:32:16;2.50;99.90
3202;DHT22;34843;48.744;8.958;2023-01-30T09:34:41;2.40;99.90
3202;DHT22;34843;48.744;8.958;2023-01-30T09:37:07;2.40;99.90
3202;DHT22;34843;48.744;8.958;2023-01-30T09:39:33;2.40;99.90
3202;DHT22;34843;48.744;8.958;2023-01-30T09:50:46;2.50;99.90
3202;DHT22;34843;48.744;8.958;2023-01-30T09:56:19;2.70;99.90
3202;DHT22;34843;48.744;8.958;2023-01-30T09:58:50;2.90;99.90
3202;DHT22;34843;48.744;8.958;2023-01-30T10:09:40;3.30;99.90
3202;DHT22;34843;48.744;8.958;2023-01-30T10:12:30;3.30;99.90
3202;DHT22;34843;48.744;8.958;2023-01-30T10:20:40;3.70;99.90
3202;DHT22;34843;48.744;8.958;2023-01-30T10:26:14;3.70;99.90
3202;DHT22;34843;48.744;8.958;2023-01-30T10:31:50;3.60;99.90
3202;DHT22;34843;48.744;8.958;2023-01-30T10:34:26;3.60;99.90
3202;DHT22;34843;48.744;8.958;2023-01-30T10:40:26;3.50;99.90
3202;DHT22;34843;48.744;8.958;2023-01-30T10:46:13;3.40;99.90
3202;DHT22;34843;48.744;8.958;2023-01-30T10:49:07;3.40;99.90
3202;DHT22;34843;48.744;8.958;2023-01-30T10:51:47;3.40;99.90
3202;DHT22;34843;48.744;8.958;2023-01-30T10:54:38;3.30;99.90
3202;DHT22;34843;48.744;8.958;2023-01-30T10:57:47;3.30;99.90
3202;DHT22;34843;48.744;8.958;2023-01-30T11:05:51;3.10;99.90
3202;DHT22;34843;48.744;8.958;2023-01-30T11:10:44;3.10;99.90
3202;DHT22;34843;48.744;8.958;2023-01-30T11:13:17;3.00;99.90
3202;DHT22;34843;48.744;8.958;2023-01-30T11:15:45;3.00;99.90
3202;DHT22;34843;48.744;8.958;2023-01-30T11:18:12;3.00;99.90
3202;DHT22;34843;48.744;8.958;2023-01-30T11:20:44;3.10;99.90
3202;DHT22;34843;48.744;8.958;2023-01-30T11:25:57;3.20;99.90
3202;DHT22;34843;48.744;8.958;2023-01-30T11:28:26;3.20;99.90
3202;DHT22;34843;48.744;8.958;2023-01-30T11:30:55;3.30;99.90
3202;DHT22;34843;48.744;8.958;2023-01-30T11:33:31;3.30;99.90
3202;DHT22;34843;48.744;8.958;2023-01-30T11:38:35;3.30;99.90
3202;DHT22;34843;48.744;8.958;2023-01-30T11:41:27;3.20;99.90
3202;DHT22;34843;48.744;8.958;2023-01-30T11:44:02;3.10;99.90
3202;DHT22;34843;48.744;8.958;2023-01-30T11:46:32;3.10;99.90
3202;DHT22;34843;48.744;8.958;2023-01-30T11:49:02;3.10;99.90
3202;DHT22;34843;48.744;8.958;2023-01-30T11:51:28;3.10;99.90
3202;DHT22;34843;48.744;8.958;2023-01-30T11:54:04;3.10;99.90
3202;DHT22;34843;48.744;8.958;2023-01-30T12:02:20;3.30;99.90
3202;DHT22;34843;48.744;8.958;2023-01-30T12:05:00;3.30;99.90
3202;DHT22;34843;48.744;8.958;2023-01-30T12:07:28;3.30;99.90
3202;DHT22;34843;48.744;8.958;2023-01-30T12:09:55;3.40;99.90
3202;DHT22;34843;48.744;8.958;2023-01-30T12:12:29;3.40;99.90
3202;DHT22;34843;48.744;8.958;2023-01-30T12:15:30;3.50;99.90
3202;DHT22;34843;48.744;8.958;2023-01-30T12:24:14;3.50;99.90
3202;DHT22;34843;48.744;8.958;2023-01-30T12:26:56;3.60;99.90
3202;DHT22;34843;48.744;8.958;2023-01-30T12:29:33;3.70;99.90
3202;DHT22;34843;48.744;8.958;2023-01-30T12:32:15;3.70;99.90
3202;DHT22;34843;48.744;8.958;2023-01-30T12:34:41;3.80;99.90
3202;DHT22;34843;48.744;8.958;2023-01-30T12:40:32;3.70;99.90
3202;DHT22;34843;48.744;8.958;2023-01-30T12:45:33;3.70;99.90
3202;DHT22;34843;48.744;8.958;2023-01-30T12:54:04;3.70;99.90
3202;DHT22;34843;48.744;8.958;2023-01-30T13:04:48;3.70;99.90
3202;DHT22;34843;48.744;8.958;2023-01-30T13:07:51;3.70;99.90
3202;DHT22;34843;48.744;8.958;2023-01-30T13:10:26;3.80;99.90
3202;DHT22;34843;48.744;8.958;2023-01-30T13:18:55;4.00;99.90
3202;DHT22;34843;48.744;8.958;2023-01-30T13:21:59;3.90;99.90
3202;DHT22;34843;48.744;8.958;2023-01-30T13:26:59;3.70;99.90
3202;DHT22;34843;48.744;8.958;2023-01-30T13:29:35;3.70;99.90
3202;DHT22;34843;48.744;8.958;2023-01-30T13:32:04;3.60;99.90
3202;DHT22;34843;48.744;8.958;2023-01-30T13:34:34;3.60;99.90
3202;DHT22;34843;48.744;8.958;2023-01-30T13:37:20;3.60;99.90
3202;DHT22;34843;48.744;8.958;2023-01-30T13:39:54;3.60;99.90
3202;DHT22;34843;48.744;8.958;2023-01-30T13:42:30;3.60;99.90
3202;DHT22;34843;48.744;8.958;2023-01-30T13:44:58;3.60;99.90
3202;DHT22;34843;48.744;8.958;2023-01-30T13:53:24;3.60;99.90
3202;DHT22;34843;48.744;8.958;2023-01-30T14:01:12;3.30;99.90
3202;DHT22;34843;48.744;8.958;2023-01-30T14:03:41;3.30;99.90
3202;DHT22;34843;48.744;8.958;2023-01-30T14:06:30;3.20;99.90
3202;DHT22;34843;48.744;8.958;2023-01-30T14:08:56;3.20;99.90
3202;DHT22;34843;48.744;8.958;2023-01-30T14:14:00;3.20;99.90
3202;DHT22;34843;48.744;8.958;2023-01-30T14:16:41;3.20;99.90
3202;DHT22;34843;48.744;8.958;2023-01-30T14:22:15;3.10;99.90
3202;DHT22;34843;48.744;8.958;2023-01-30T14:24:42;3.00;99.90
3202;DHT22;34843;48.744;8.958;2023-01-30T14:27:27;3.00;99.90
3202;DHT22;34843;48.744;8.958;2023-01-30T14:29:56;3.00;99.90
3202;DHT22;34843;48.744;8.958;2023-01-30T14:37:29;2.90;99.90
3202;DHT22;34843;48.744;8.958;2023-01-30T14:59:46;2.80;99.90
3202;DHT22;34843;48.744;8.958;2023-01-30T15:04:45;2.90;99.90
3202;DHT22;34843;48.744;8.958;2023-01-30T15:07:19;2.90;99.90
3202;DHT22;34843;48.744;8.958;2023-01-30T15:12:59;2.90;99.90
3202;DHT22;34843;48.744;8.958;2023-01-30T15:27:10;2.70;99.90
3202;DHT22;34843;48.744;8.958;2023-01-30T15:32:23;2.70;99.90
3202;DHT22;34843;48.744;8.958;2023-01-30T15:34:50;2.80;99.90
3202;DHT22;34843;48.744;8.958;2023-01-30T15:40:10;2.70;99.90
3202;DHT22;34843;48.744;8.958;2023-01-30T15:42:36;2.70;99.90
3202;DHT22;34843;48.744;8.958;2023-01-30T15:47:46;2.60;99.90
3202;DHT22;34843;48.744;8.958;2023-01-30T15:50:15;2.60;99.90
3202;DHT22;34843;48.744;8.958;2023-01-30T15:52:47;2.60;99.90
3202;DHT22;34843;48.744;8.958;2023-01-30T15:55:28;2.60;99.90
3202;DHT22;34843;48.744;8.958;2023-01-30T15:57:57;2.50;99.90
3202;DHT22;34843;48.744;8.958;2023-01-30T16:00:32;2.50;99.90
3202;DHT22;34843;48.744;8.958;2023-01-30T16:03:00;2.50;99.90
3202;DHT22;34843;48.744;8.958;2023-01-30T16:05:27;2.50;99.90
3202;DHT22;34843;48.744;8.958;2023-01-30T16:07:54;2.50;99.90
3202;DHT22;34843;48.744;8.958;2023-01-30T16:10:26;2.40;99.90
3202;DHT22;34843;48.744;8.958;2023-01-30T16:12:54;2.40;99.90
3202;DHT22;34843;48.744;8.958;2023-01-30T16:20:33;2.20;99.90
3202;DHT22;34843;48.744;8.958;2023-01-30T16:23:26;2.10;99.90
3202;DHT22;34843;48.744;8.958;2023-01-30T16:25:53;2.10;99.90
3202;DHT22;34843;48.744;8.958;2023-01-30T16:28:21;2.00;99.90
3202;DHT22;34843;48.744;8.958;2023-01-30T16:30:54;2.00;99.90
3202;DHT22;34843;48.744;8.958;2023-01-30T16:33:21;2.00;99.90
3202;DHT22;34843;48.744;8.958;2023-01-30T16:35:46;1.90;99.90
3202;DHT22;34843;48.744;8.958;2023-01-30T16:38:34;1.90;99.90
3202;DHT22;34843;48.744;8.958;2023-01-30T16:41:00;1.90;99.90
3202;DHT22;34843;48.744;8.958;2023-01-30T16:43:26;2.00;99.90
3202;DHT22;34843;48.744;8.958;2023-01-30T16:51:11;2.00;99.90
3202;DHT22;34843;48.744;8.958;2023-01-30T16:53:48;2.10;99.90
3202;DHT22;34843;48.744;8.958;2023-01-30T16:56:15;2.10;99.90
3202;DHT22;34843;48.744;8.958;2023-01-30T16:58:45;2.00;99.90
3202;DHT22;34843;48.744;8.958;2023-01-30T17:01:13;2.10;99.90
3202;DHT22;34843;48.744;8.958;2023-01-30T17:03:42;2.00;99.90
3202;DHT22;34843;48.744;8.958;2023-01-30T17:06:40;2.10;99.90
3202;DHT22;34843;48.744;8.958;2023-01-30T17:09:43;2.10;99.90
3202;DHT22;34843;48.744;8.958;2023-01-30T17:12:35;2.10;99.90
3202;DHT22;34843;48.744;8.958;2023-01-30T17:17:40;2.10;99.90
3202;DHT22;34843;48.744;8.958;2023-01-30T17:20:06;2.10;99.90
3202;DHT22;34843;48.744;8.958;2023-01-30T17:22:32;2.10;99.90
3202;DHT22;34843;48.744;8.958;2023-01-30T17:25:02;2.10;99.90
3202;DHT22;34843;48.744;8.958;2023-01-30T17:27:30;2.10;99.90
3202;DHT22;34843;48.744;8.958;2023-01-30T17:29:55;2.00;99.90
3202;DHT22;34843;48.744;8.958;2023-01-30T17:32:21;2.00;99.90
3202;DHT22;34843;48.744;8.958;2023-01-30T17:34:47;2.00;99.90
3202;DHT22;34843;48.744;8.958;2023-01-30T17:37:14;2.00;99.90
3202;DHT22;34843;48.744;8.958;2023-01-30T17:39:40;2.00;99.90
3202;DHT22;34843;48.744;8.958;2023-01-30T17:42:10;2.00;99.90
3202;DHT22;34843;48.744;8.958;2023-01-30T17:44:36;2.00;99.90
3202;DHT22;34843;48.744;8.958;2023-01-30T17:47:01;2.00;99.90
3202;DHT22;34843;48.744;8.958;2023-01-30T17:49:27;2.00;99.90
3202;DHT22;34843;48.744;8.958;2023-01-30T17:51:52;2.00;99.90
3202;DHT22;34843;48.744;8.958;2023-01-30T17:54:20;2.10;99.90
3202;DHT22;34843;48.744;8.958;2023-01-30T17:56:51;2.10;99.90
3202;DHT22;34843;48.744;8.958;2023-01-30T17:59:18;2.10;99.90
3202;DHT22;34843;48.744;8.958;2023-01-30T18:01:46;2.00;99.90
3202;DHT22;34843;48.744;8.958;2023-01-30T18:04:12;2.10;99.90
3202;DHT22;34843;48.744;8.958;2023-01-30T18:06:39;2.10;99.90
3202;DHT22;34843;48.744;8.958;2023-01-30T18:09:13;2.00;99.90
3202;DHT22;34843;48.744;8.958;2023-01-30T18:11:39;2.00;99.90
3202;DHT22;34843;48.744;8.958;2023-01-30T18:14:05;1.90;99.90
3202;DHT22;34843;48.744;8.958;2023-01-30T18:16:30;1.90;99.90
3202;DHT22;34843;48.744;8.958;2023-01-30T18:18:57;1.80;99.90
3202;DHT22;34843;48.744;8.958;2023-01-30T18:21:23;1.70;99.90
3202;DHT22;34843;48.744;8.958;2023-01-30T18:23:49;1.70;99.90
3202;DHT22;34843;48.744;8.958;2023-01-30T18:26:16;1.70;99.90
3202;DHT22;34843;48.744;8.958;2023-01-30T18:28:41;1.70;99.90
3202;DHT22;34843;48.744;8.958;2023-01-30T18:31:09;1.70;99.90
3202;DHT22;34843;48.744;8.958;2023-01-30T18:33:35;1.70;99.90
3202;DHT22;34843;48.744;8.958;2023-01-30T18:36:05;1.60;99.90
3202;DHT22;34843;48.744;8.958;2023-01-30T18:38:31;1.60;99.90
3202;DHT22;34843;48.744;8.958;2023-01-30T18:40:56;1.50;99.90
3202;DHT22;34843;48.744;8.958;2023-01-30T18:43:22;1.50;99.90
3202;DHT22;34843;48.744;8.958;2023-01-30T18:45:47;1.40;99.90
3202;DHT22;34843;48.744;8.958;2023-01-30T18:48:13;1.30;99.90
3202;DHT22;34843;48.744;8.958;2023-01-30T18:50:38;1.30;99.90
3202;DHT22;34843;48.744;8.958;2023-01-30T18:53:04;1.30;99.90
3202;DHT22;34843;48.744;8.958;2023-01-30T18:55:31;1.30;99.90
3202;DHT22;34843;48.744;8.958;2023-01-30T18:57:58;1.30;99.90
3202;DHT22;34843;48.744;8.958;2023-01-30T19:00:24;1.40;99.90
3202;DHT22;34843;48.744;8.958;2023-01-30T19:02:51;1.50;99.90
3202;DHT22;34843;48.744;8.958;2023-01-30T19:05:17;1.50;99.90
3202;DHT22;34843;48.744;8.958;2023-01-30T19:07:42;1.60;99.90
3202;DHT22;34843;48.744;8.958;2023-01-30T19:10:08;1.60;99.90
3202;DHT22;34843;48.744;8.958;2023-01-30T19:12:34;1.60;99.90
3202;DHT22;34843;48.744;8.958;2023-01-30T19:15:18;1.70;99.90
3202;DHT22;34843;48.744;8.958;2023-01-30T19:17:44;1.70;99.90
3202;DHT22;34843;48.744;8.958;2023-01-30T19:20:10;1.70;99.90
3202;DHT22;34843;48.744;8.958;2023-01-30T19:22:37;1.70;99.90
3202;DHT22;34843;48.744;8.958;2023-01-30T19:25:03;1.50;99.90